This demonstration page uses our WeatherBlox Daily Observations layout. Learn more.

41.55636, -103.73856

Hourly Observations for September 15, 2019

Temp ( °F °C ) Dew Point ( °F °C ) Humidity (%) Winds ( mph kmh ) Pressure ( in mb ) Visibility ( mi km ) Precip ( " mm )
12:58 am 00:58 Clear 53 11.4 43 5.9 69 69 WSW 8 13 30 1016 10 16.09344 0 0
1:58 am 01:58 Clear 52 11.2 42 5.5 68 68 WSW 10 17 30 1016 10 16.09344 0 0
2:58 am 02:58 Clear 52 11.2 42 5.4 68 68 W 10 17 30 1016 10 16.09344 0 0
3:58 am 03:58 Clear 53 11.7 41 5 64 64 W 14 22 30 1016 10 16.09344 0 0
4:58 am 04:58 Clear 51 10.8 41 5 68 68 W 12 19 29.97 1015 10 16.09344 0 0
5:58 am 05:58 Clear 53 11.4 41 5 65 65 W 12 19 30 1016 10 16.09344 0 0
6:58 am 06:58 Sunny 51 10.8 41 5.1 68 68 W 13 20 30 1016 10 16.09344 0 0
7:58 am 07:58 Sunny 60 15.6 44 6.6 55 55 W 10 17 30 1016 10 16.09344 0 0
8:58 am 08:58 Sunny 69 20.8 48 9 47 47 W 9 15 30 1016 10 16.09344 0 0
9:58 am 09:58 Sunny 78 25.4 49 9.5 37 37 W 8 13 29.97 1015 10 16.09344 0 0
11:58 am 11:58 Sunny 82 27.6 53 11.8 37 37 S 9 15 29.94 1014 10 16.09344 0 0
12:58 pm 12:58 Sunny 84 28.7 53 11.9 35 35 S 9 15 29.94 1014 10 16.09344 0 0
1:58 pm 13:58 Sunny 84 29 54 12.4 36 36 S 10 17 29.91 1013 10 16.09344 0 0
2:58 pm 14:58 Sunny 85 29.3 53 11.7 34 34 S 12 19 29.88 1012 10 16.09344 0 0
3:58 pm 15:58 Sunny 85 29.6 49 9.2 28 28 SSW 13 20 29.85 1011 10 16.09344 0 0
4:58 pm 16:58 Sunny 86 29.8 42 5.3 21 21 SSW 14 22 29.85 1011 10 16.09344 0 0
5:58 pm 17:58 Sunny 79 26 51 10.4 38 38 S 7 11 29.85 1011 10 16.09344 0 0
6:58 pm 18:58 Sunny 74 23.4 55 12.5 50 50 SE 9 15 29.85 1011 10 16.09344 0 0
7:58 pm 19:58 Mostly Clear 70 20.9 49 9.2 47 47 SSE 8 13 29.85 1011 10 16.09344 0 0
8:58 pm 20:58 Clear 64 17.5 47 8.3 55 55 SSE 9 15 29.85 1011 10 16.09344 0 0
9:58 pm 21:58 Mostly Cloudy 65 18.1 47 8.1 52 52 S 8 13 29.85 1011 10 16.09344 0 0
10:58 pm 22:58 Mostly Cloudy 64 17.8 48 9.1 57 57 S 8 13 29.83 1010 10 16.09344 0 0
11:58 pm 23:58 Mostly Cloudy 63 17.4 50 9.9 62 62 S 8 13 29.83 1010 10 16.09344 0 0

Powered by AerisWeather